createdAt,value
2023-02-23T00:00:29.789Z,137.07
2023-02-23T00:02:59.032Z,166.20
2023-02-23T00:05:26.531Z,121.32
2023-02-23T00:07:54.164Z,151.32
2023-02-23T00:10:21.323Z,94.05
2023-02-23T00:12:51.268Z,190.30
2023-02-23T00:15:17.872Z,187.98
2023-02-23T00:17:44.287Z,144.88
2023-02-23T00:20:11.950Z,209.48
2023-02-23T00:22:41.740Z,224.50
2023-02-23T00:25:08.990Z,260.88
2023-02-23T00:27:36.433Z,221.15
2023-02-23T00:30:03.238Z,302.35
2023-02-23T00:32:29.753Z,326.58
2023-02-23T00:34:58.345Z,361.38
2023-02-23T00:37:24.815Z,375.30
2023-02-23T00:39:52.766Z,292.58
2023-02-23T00:42:19.448Z,266.33
2023-02-23T00:44:47.606Z,422.98
2023-02-23T00:47:14.265Z,180.45
2023-02-23T00:49:41.182Z,444.15
2023-02-23T00:52:07.715Z,322.00
2023-02-23T00:54:34.319Z,315.10
2023-02-23T00:57:00.756Z,224.90
2023-02-23T00:59:27.176Z,150.95
2023-02-23T01:01:53.896Z,275.20
2023-02-23T01:04:20.853Z,201.10
2023-02-23T01:06:47.333Z,404.35
2023-02-23T01:09:16.037Z,330.63
2023-02-23T01:11:42.479Z,332.23
2023-02-23T01:14:10.314Z,414.65
2023-02-23T01:16:38.803Z,248.23
2023-02-23T01:19:05.497Z,399.52
2023-02-23T01:21:33.538Z,218.80
2023-02-23T01:24:00.327Z,437.33
2023-02-23T01:26:28.267Z,491.42
2023-02-23T01:28:55.946Z,294.30
2023-02-23T01:31:24.486Z,331.50
2023-02-23T01:33:54.736Z,317.10
2023-02-23T01:36:21.300Z,378.52
2023-02-23T01:38:49.242Z,424.98
2023-02-23T01:41:16.515Z,297.65
2023-02-23T01:43:55.480Z,253.13
2023-02-23T01:46:22.033Z,406.45
2023-02-23T01:48:48.921Z,339.50
2023-02-23T01:51:18.741Z,244.90
2023-02-23T01:53:56.325Z,458.40
2023-02-23T01:56:25.176Z,456.85
2023-02-23T01:58:53.000Z,242.27
2023-02-23T02:01:19.827Z,207.40
2023-02-23T02:04:08.625Z,319.05
2023-02-23T02:06:35.999Z,299.10
2023-02-23T02:09:07.170Z,391.80
2023-02-23T02:11:38.843Z,300.52
2023-02-23T02:14:14.680Z,290.88
2023-02-23T02:16:52.743Z,392.45
2023-02-23T02:19:37.117Z,294.92
2023-02-23T02:22:25.590Z,369.45
2023-02-23T02:25:20.701Z,434.75
2023-02-23T02:27:50.938Z,362.38
2023-02-23T02:30:29.685Z,365.77
2023-02-23T02:33:06.950Z,341.27
2023-02-23T02:35:45.506Z,354.35
2023-02-23T02:38:30.762Z,395.27
2023-02-23T02:41:28.408Z,258.13
2023-02-23T02:44:06.831Z,183.70
2023-02-23T02:46:41.490Z,358.40
2023-02-23T02:49:13.690Z,249.32
2023-02-23T02:51:40.078Z,441.38
2023-02-23T02:54:25.500Z,443.23
2023-02-23T02:56:54.513Z,360.10
2023-02-23T02:59:39.889Z,334.35
2023-02-23T03:02:25.112Z,261.92
2023-02-23T03:05:10.295Z,380.55
2023-02-23T03:08:00.743Z,330.77
2023-02-23T03:11:05.373Z,239.77
2023-02-23T03:14:10.678Z,337.38
2023-02-23T03:17:15.995Z,445.88
2023-02-23T03:20:06.745Z,356.63
2023-02-23T03:23:05.577Z,193.25
2023-02-23T03:25:53.945Z,456.13
2023-02-23T03:28:43.264Z,244.32
2023-02-23T03:31:34.525Z,302.85
2023-02-23T03:34:38.216Z,449.02
2023-02-23T03:37:26.710Z,343.73
2023-02-23T03:40:25.030Z,392.95
2023-02-23T03:43:11.332Z,379.33
2023-02-23T03:45:57.232Z,296.83
2023-02-23T03:48:43.617Z,311.52
2023-02-23T03:51:29.708Z,499.67
2023-02-23T03:54:27.079Z,498.67
2023-02-23T03:57:14.777Z,352.77
2023-02-23T04:00:02.590Z,341.55
2023-02-23T04:02:48.253Z,512.88
2023-02-23T04:05:35.600Z,280.92
2023-02-23T04:08:22.331Z,442.63
2023-02-23T04:11:13.174Z,536.78
2023-02-23T04:13:40.299Z,497.35
2023-02-23T04:16:08.086Z,321.15
2023-02-23T04:18:35.734Z,514.65
2023-02-23T04:21:02.204Z,349.40
2023-02-23T04:23:28.959Z,361.35
2023-02-23T04:25:55.691Z,272.83
2023-02-23T04:28:22.890Z,312.27
2023-02-23T04:30:49.681Z,438.70
2023-02-23T04:33:16.108Z,547.20
2023-02-23T04:35:42.546Z,382.88
2023-02-23T04:38:08.947Z,491.95
2023-02-23T04:40:35.635Z,325.33
2023-02-23T04:43:02.191Z,335.60
2023-02-23T04:45:28.618Z,338.77
2023-02-23T04:47:55.066Z,491.33
2023-02-23T04:50:21.803Z,514.72
2023-02-23T04:52:48.776Z,408.08
2023-02-23T04:55:17.061Z,501.20
2023-02-23T04:57:43.554Z,306.35
2023-02-23T05:00:10.747Z,665.22
2023-02-23T05:02:37.273Z,806.75
2023-02-23T05:05:03.890Z,373.15
2023-02-23T05:07:30.369Z,628.72
2023-02-23T05:09:56.830Z,627.28
2023-02-23T05:12:23.235Z,263.25
2023-02-23T05:14:49.740Z,438.58
2023-02-23T05:17:16.232Z,497.13
2023-02-23T05:19:42.631Z,641.15
2023-02-23T05:22:12.617Z,592.58
2023-02-23T05:24:39.752Z,547.60
2023-02-23T05:27:07.138Z,522.22
2023-02-23T05:29:33.625Z,288.80
2023-02-23T05:32:00.210Z,299.73
2023-02-23T05:34:27.171Z,454.10
2023-02-23T05:36:54.353Z,804.97
2023-02-23T05:39:21.146Z,215.40
2023-02-23T05:41:47.593Z,531.08
2023-02-23T05:44:14.324Z,283.77
2023-02-23T05:46:40.809Z,294.75
2023-02-23T05:49:07.271Z,350.95
2023-02-23T05:51:34.512Z,172.50
2023-02-23T05:54:01.090Z,537.85
2023-02-23T05:56:27.673Z,274.27
2023-02-23T05:58:55.683Z,386.45
2023-02-23T06:01:22.768Z,489.13
2023-02-23T06:03:49.216Z,380.92
2023-02-23T06:06:15.667Z,246.93
2023-02-23T06:08:42.546Z,473.13
2023-02-23T06:11:09.287Z,434.48
2023-02-23T06:13:36.071Z,285.02
2023-02-23T06:16:02.612Z,250.93
2023-02-23T06:18:29.669Z,399.42
2023-02-23T06:20:56.168Z,508.35
2023-02-23T06:23:22.590Z,668.40
2023-02-23T06:25:49.093Z,578.38
2023-02-23T06:28:15.529Z,723.20
2023-02-23T06:30:42.416Z,485.95
2023-02-23T06:33:08.881Z,488.35
2023-02-23T06:35:35.574Z,493.95
2023-02-23T06:38:03.393Z,404.23
2023-02-23T06:40:30.257Z,581.92
2023-02-23T06:42:56.721Z,399.98
2023-02-23T06:45:23.209Z,488.02
2023-02-23T06:47:49.669Z,428.45
2023-02-23T06:50:19.417Z,651.78
2023-02-23T06:52:46.072Z,490.42
2023-02-23T06:55:14.375Z,630.45
2023-02-23T06:57:41.402Z,316.77
2023-02-23T07:00:17.856Z,362.13
2023-02-23T07:02:44.828Z,487.90
2023-02-23T07:05:11.471Z,461.85
2023-02-23T07:07:38.368Z,266.13
2023-02-23T07:10:05.627Z,497.83
2023-02-23T07:12:32.076Z,344.67
2023-02-23T07:14:58.501Z,301.73
2023-02-23T07:17:24.924Z,243.82
2023-02-23T07:19:51.347Z,394.20
2023-02-23T07:22:17.824Z,421.85
2023-02-23T07:24:44.244Z,613.38
2023-02-23T07:27:10.717Z,332.50
2023-02-23T07:29:37.189Z,475.25
2023-02-23T07:32:03.875Z,576.88
2023-02-23T07:34:30.445Z,276.42
2023-02-23T07:36:56.868Z,501.38
2023-02-23T07:39:23.315Z,305.83
2023-02-23T07:41:49.807Z,442.55
2023-02-23T07:44:19.415Z,540.90
2023-02-23T07:46:46.430Z,457.52
2023-02-23T07:49:13.855Z,628.30
2023-02-23T07:51:40.695Z,374.23
2023-02-23T07:54:07.403Z,276.23
2023-02-23T07:56:34.089Z,251.88
2023-02-23T07:59:00.475Z,190.35
2023-02-23T08:01:26.997Z,343.77
2023-02-23T08:03:53.550Z,422.20
2023-02-23T08:06:20.229Z,237.07
2023-02-23T08:08:46.685Z,403.83
2023-02-23T08:11:13.248Z,364.05
2023-02-23T08:13:39.731Z,315.30
2023-02-23T08:16:06.377Z,404.63
2023-02-23T08:18:33.302Z,297.40
2023-02-23T08:21:00.753Z,419.20
2023-02-23T08:23:29.492Z,373.45
2023-02-23T08:25:56.031Z,271.13
2023-02-23T08:28:22.593Z,437.63
2023-02-23T08:30:49.062Z,129.63
2023-02-23T08:33:15.585Z,133.02
2023-02-23T08:35:42.023Z,242.30
2023-02-23T08:38:08.494Z,408.48
2023-02-23T08:40:34.913Z,159.23
2023-02-23T08:43:01.374Z,155.65
2023-02-23T08:45:29.306Z,236.05
2023-02-23T08:47:56.181Z,152.57
2023-02-23T08:50:22.833Z,364.85
2023-02-23T08:52:49.226Z,151.07
2023-02-23T08:55:18.006Z,249.35
2023-02-23T08:57:44.471Z,297.83
2023-02-23T09:00:17.039Z,301.85
2023-02-23T09:02:44.213Z,304.15
2023-02-23T09:05:10.733Z,316.60
2023-02-23T09:07:38.402Z,312.70
2023-02-23T09:10:05.183Z,231.27
2023-02-23T09:12:31.602Z,498.98
2023-02-23T09:14:58.172Z,155.52
2023-02-23T09:17:24.656Z,218.88
2023-02-23T09:19:51.172Z,231.15
2023-02-23T09:22:18.475Z,223.43
2023-02-23T09:24:45.314Z,213.38
2023-02-23T09:27:14.770Z,265.08
2023-02-23T09:29:42.338Z,314.15
2023-02-23T09:32:09.062Z,214.63
2023-02-23T09:34:37.407Z,138.68
2023-02-23T09:37:04.569Z,146.57
2023-02-23T09:39:38.085Z,149.38
2023-02-23T09:42:14.506Z,146.15
2023-02-23T09:44:59.904Z,260.90
2023-02-23T09:47:40.450Z,201.50
2023-02-23T09:50:14.296Z,215.60
2023-02-23T09:52:42.620Z,120.25
2023-02-23T09:55:11.409Z,108.82
2023-02-23T09:57:39.279Z,143.73
2023-02-23T10:00:32.361Z,124.57
2023-02-23T10:03:08.129Z,127.03
2023-02-23T10:05:38.124Z,138.15
2023-02-23T10:08:12.459Z,240.20
2023-02-23T10:10:38.980Z,152.90
2023-02-23T10:13:19.956Z,197.55
2023-02-23T10:15:49.682Z,181.85
2023-02-23T10:18:22.059Z,224.48
2023-02-23T10:21:13.934Z,183.10
2023-02-23T10:23:42.752Z,94.82
2023-02-23T10:26:15.502Z,152.82
2023-02-23T10:28:42.000Z,195.30
2023-02-23T10:31:25.663Z,115.25
2023-02-23T10:33:52.691Z,124.85
2023-02-23T10:36:31.425Z,148.00
2023-02-23T10:38:57.857Z,108.50
2023-02-23T10:41:24.352Z,140.27
2023-02-23T10:43:50.893Z,101.25
2023-02-23T10:46:22.219Z,115.53
2023-02-23T10:48:50.244Z,82.35
2023-02-23T10:51:19.642Z,110.50
2023-02-23T10:53:46.378Z,115.30
2023-02-23T10:56:17.626Z,135.13
2023-02-23T10:58:46.337Z,180.10
2023-02-23T11:01:15.736Z,167.57
2023-02-23T11:03:44.298Z,118.95
2023-02-23T11:06:27.641Z,146.30
2023-02-23T11:08:55.404Z,226.63
2023-02-23T11:11:31.526Z,151.30
2023-02-23T11:13:57.992Z,152.05
2023-02-23T11:16:25.961Z,136.90
2023-02-23T11:18:59.948Z,131.73
2023-02-23T11:21:34.387Z,128.43
2023-02-23T11:24:27.185Z,108.35
2023-02-23T11:26:57.945Z,94.28
2023-02-23T11:29:33.596Z,108.82
2023-02-23T11:32:00.262Z,89.82
2023-02-23T11:34:33.874Z,64.30
2023-02-23T11:37:01.697Z,102.20
2023-02-23T11:39:28.164Z,81.53
2023-02-23T11:42:12.975Z,102.43
2023-02-23T11:44:39.405Z,74.15
2023-02-23T11:47:06.149Z,84.00
2023-02-23T11:49:35.232Z,78.18
2023-02-23T11:52:02.194Z,86.68
2023-02-23T11:54:30.625Z,99.18
2023-02-23T11:56:58.085Z,60.28
2023-02-23T11:59:28.428Z,57.92
2023-02-23T12:01:56.813Z,66.50
2023-02-23T12:04:25.188Z,76.00
2023-02-23T12:06:52.123Z,69.45
2023-02-23T12:09:21.761Z,75.35
2023-02-23T12:11:55.600Z,64.57
2023-02-23T12:14:38.811Z,61.53
2023-02-23T12:17:13.016Z,83.43
2023-02-23T12:19:42.172Z,96.78
2023-02-23T12:22:13.853Z,70.57
2023-02-23T12:24:45.241Z,61.95
2023-02-23T12:27:12.943Z,49.83
2023-02-23T12:29:48.526Z,64.45
2023-02-23T12:32:17.888Z,46.28
2023-02-23T12:34:56.734Z,48.70
2023-02-23T12:37:24.784Z,41.90
2023-02-23T12:39:54.601Z,42.58
2023-02-23T12:42:29.887Z,41.15
2023-02-23T12:44:58.776Z,58.63
2023-02-23T12:47:37.573Z,58.80
2023-02-23T12:50:22.870Z,54.08
2023-02-23T12:52:57.570Z,47.83
2023-02-23T12:55:31.520Z,42.90
2023-02-23T12:58:01.749Z,46.95
2023-02-23T13:00:42.653Z,43.25
2023-02-23T13:03:18.555Z,39.85
2023-02-23T13:05:49.871Z,39.15
2023-02-23T13:08:26.929Z,41.13
2023-02-23T13:10:54.111Z,44.70
2023-02-23T13:13:20.705Z,44.10
2023-02-23T13:15:50.197Z,33.08
2023-02-23T13:18:25.765Z,28.20
2023-02-23T13:20:58.335Z,30.38
2023-02-23T13:23:27.732Z,34.08
2023-02-23T13:26:02.978Z,27.98
2023-02-23T13:28:36.474Z,25.85
2023-02-23T13:31:05.780Z,28.38
2023-02-23T13:33:43.732Z,27.08
2023-02-23T13:36:12.808Z,27.48
2023-02-23T13:38:39.963Z,31.55
2023-02-23T13:41:20.626Z,36.75
2023-02-23T13:43:54.659Z,35.08
2023-02-23T13:46:26.357Z,30.08
2023-02-23T13:49:02.174Z,40.13
2023-02-23T13:51:35.199Z,36.45
2023-02-23T13:54:04.492Z,33.88
2023-02-23T13:56:32.269Z,30.75
2023-02-23T13:59:00.283Z,35.13
2023-02-23T14:01:36.272Z,33.70
2023-02-23T14:04:04.040Z,32.50
2023-02-23T14:06:32.891Z,35.95
2023-02-23T14:09:06.039Z,37.60
2023-02-23T14:11:43.078Z,33.28
2023-02-23T14:14:17.018Z,34.53
2023-02-23T14:16:44.271Z,35.25
2023-02-23T14:19:13.413Z,36.13
2023-02-23T14:21:50.793Z,35.97
2023-02-23T14:24:19.394Z,37.25
2023-02-23T14:27:09.393Z,35.67
2023-02-23T14:29:43.817Z,33.10
2023-02-23T14:32:13.655Z,39.30
2023-02-23T14:34:48.222Z,35.45
2023-02-23T14:37:33.578Z,36.17
2023-02-23T14:40:01.850Z,42.70
2023-02-23T14:42:29.828Z,42.70
2023-02-23T14:44:58.029Z,35.95
2023-02-23T14:47:26.357Z,37.08
2023-02-23T14:49:52.757Z,38.83
2023-02-23T14:52:29.895Z,35.92
2023-02-23T14:55:17.230Z,39.38
2023-02-23T14:57:44.125Z,39.38
2023-02-23T15:00:23.295Z,43.50
2023-02-23T15:03:00.676Z,41.55
2023-02-23T15:05:29.144Z,43.83
2023-02-23T15:07:58.395Z,43.03
2023-02-23T15:10:27.975Z,39.35
2023-02-23T15:12:54.585Z,45.92
2023-02-23T15:15:23.432Z,36.97
2023-02-23T15:17:52.327Z,45.30
2023-02-23T15:20:19.948Z,42.65
2023-02-23T15:22:47.517Z,41.60
2023-02-23T15:25:19.723Z,42.58
2023-02-23T15:27:46.904Z,50.20
2023-02-23T15:30:22.755Z,50.58
2023-02-23T15:32:49.426Z,58.00
2023-02-23T15:35:16.053Z,48.17
2023-02-23T15:40:21.105Z,52.53
2023-02-23T15:42:49.722Z,64.22
2023-02-23T15:45:23.414Z,58.78
2023-02-23T15:47:52.625Z,62.63
2023-02-23T15:50:34.901Z,47.63
2023-02-23T15:53:08.750Z,42.45
2023-02-23T15:55:36.826Z,36.00
2023-02-23T15:58:18.525Z,40.53
2023-02-23T16:00:51.247Z,35.13
2023-02-23T16:03:23.884Z,38.13
2023-02-23T16:06:21.100Z,39.33
2023-02-23T16:09:02.323Z,34.38
2023-02-23T16:11:34.933Z,34.97
2023-02-23T16:14:02.526Z,36.33
2023-02-23T16:16:32.390Z,36.92
2023-02-23T16:19:04.667Z,37.55
2023-02-23T16:21:31.682Z,42.05
2023-02-23T16:24:01.776Z,41.38
2023-02-23T16:26:30.800Z,51.83
2023-02-23T16:29:00.434Z,46.00
2023-02-23T16:31:43.248Z,43.15
2023-02-23T16:34:31.269Z,42.08
2023-02-23T16:36:59.065Z,44.92
2023-02-23T16:39:29.483Z,36.22
2023-02-23T16:41:58.505Z,38.03
2023-02-23T16:44:31.406Z,23.77
2023-02-23T16:47:01.617Z,24.05
2023-02-23T16:49:31.412Z,18.45
2023-02-23T16:51:58.699Z,21.38
2023-02-23T16:54:25.470Z,21.73
2023-02-23T16:56:55.270Z,24.45
2023-02-23T16:59:22.931Z,30.35
2023-02-23T17:01:50.146Z,26.92
2023-02-23T17:04:17.615Z,26.70
2023-02-23T17:06:45.129Z,28.48
2023-02-23T17:09:12.632Z,23.75
2023-02-23T17:11:40.248Z,25.23
2023-02-23T17:14:06.837Z,26.45
2023-02-23T17:16:33.358Z,25.20
2023-02-23T17:19:01.701Z,34.35
2023-02-23T17:21:28.366Z,29.85
2023-02-23T17:24:02.499Z,29.45
2023-02-23T17:26:29.013Z,28.52
2023-02-23T17:28:55.444Z,31.15
2023-02-23T17:31:28.518Z,29.63
2023-02-23T17:33:55.294Z,26.02
2023-02-23T17:36:23.775Z,28.92
2023-02-23T17:38:50.288Z,33.97
2023-02-23T17:41:17.450Z,30.55
2023-02-23T17:43:44.390Z,34.25
2023-02-23T17:46:11.400Z,29.55
2023-02-23T17:48:38.080Z,32.97
2023-02-23T17:51:05.824Z,31.80
2023-02-23T17:53:32.602Z,31.20
2023-02-23T17:55:59.027Z,40.25
2023-02-23T17:58:25.517Z,33.20
2023-02-23T18:00:56.207Z,33.42
2023-02-23T18:03:24.086Z,32.17
2023-02-23T18:05:50.656Z,33.65
2023-02-23T18:08:19.988Z,36.85
2023-02-23T18:10:50.513Z,29.33
2023-02-23T18:13:16.980Z,28.20
2023-02-23T18:15:47.440Z,30.15
2023-02-23T18:18:13.864Z,28.77
2023-02-23T18:20:40.314Z,30.90
2023-02-23T18:23:07.269Z,31.60
2023-02-23T18:25:33.705Z,31.35
2023-02-23T18:28:00.162Z,30.42
2023-02-23T18:30:27.168Z,36.08
2023-02-23T18:32:57.567Z,32.22
2023-02-23T18:35:24.079Z,33.08
2023-02-23T18:37:50.524Z,27.38
2023-02-23T18:40:21.385Z,32.83
2023-02-23T18:42:48.429Z,32.97
2023-02-23T18:45:15.065Z,28.25
2023-02-23T18:47:42.177Z,30.67
2023-02-23T18:50:11.686Z,34.97
2023-02-23T18:52:40.745Z,30.10
2023-02-23T18:55:08.395Z,24.40
2023-02-23T18:57:34.823Z,27.58
2023-02-23T19:00:01.286Z,27.65
2023-02-23T19:02:28.676Z,24.70
2023-02-23T19:04:55.154Z,28.25
2023-02-23T19:07:21.594Z,26.27
2023-02-23T19:09:48.260Z,27.75
2023-02-23T19:12:14.656Z,27.75
2023-02-23T19:14:49.227Z,23.55
2023-02-23T19:17:16.273Z,26.05
2023-02-23T19:19:42.716Z,25.58
2023-02-23T19:22:09.163Z,27.15
2023-02-23T19:24:37.128Z,27.95
2023-02-23T19:27:04.317Z,24.20
2023-02-23T19:29:30.806Z,26.55
2023-02-23T19:31:57.451Z,28.60
2023-02-23T19:34:24.035Z,27.35
2023-02-23T19:36:50.444Z,28.67
2023-02-23T19:39:16.854Z,25.10
2023-02-23T19:41:44.519Z,25.25
2023-02-23T19:44:11.198Z,23.85
2023-02-23T19:46:39.821Z,21.02
2023-02-23T19:49:06.395Z,21.90
2023-02-23T19:51:32.775Z,20.88
2023-02-23T19:53:59.716Z,23.65
2023-02-23T19:56:27.845Z,22.55
2023-02-23T19:58:57.185Z,27.10
2023-02-23T20:01:27.329Z,24.88
2023-02-23T20:04:01.727Z,22.95
2023-02-23T20:06:31.085Z,26.88
2023-02-23T20:08:58.269Z,29.17
2023-02-23T20:11:24.771Z,26.00
2023-02-23T20:13:52.908Z,27.02
2023-02-23T20:16:20.155Z,29.80
2023-02-23T20:18:47.071Z,23.98
2023-02-23T20:21:15.300Z,30.35
2023-02-23T20:23:42.722Z,28.90
2023-02-23T20:26:10.705Z,27.35
2023-02-23T20:28:37.696Z,28.02
2023-02-23T20:31:04.493Z,35.28
2023-02-23T20:33:31.451Z,28.58
2023-02-23T20:35:58.047Z,30.75
2023-02-23T20:38:24.513Z,29.92
2023-02-23T20:40:51.466Z,32.38
2023-02-23T20:43:18.030Z,31.00
2023-02-23T20:45:44.508Z,29.40
2023-02-23T20:48:11.064Z,30.25
2023-02-23T20:50:38.195Z,29.65
2023-02-23T20:53:05.419Z,24.80
2023-02-23T20:55:32.104Z,24.08
2023-02-23T20:57:58.917Z,28.70
2023-02-23T21:00:31.684Z,29.17
2023-02-23T21:02:59.607Z,26.38
2023-02-23T21:05:26.818Z,31.95
2023-02-23T21:07:57.200Z,29.17
2023-02-23T21:10:23.751Z,26.60
2023-02-23T21:12:50.130Z,30.55
2023-02-23T21:15:17.072Z,28.35
2023-02-23T21:17:43.495Z,31.42
2023-02-23T21:20:12.443Z,33.60
2023-02-23T21:22:39.203Z,35.97
2023-02-23T21:25:06.262Z,31.48
2023-02-23T21:27:32.654Z,29.40
2023-02-23T21:29:59.636Z,23.33
2023-02-23T21:32:30.908Z,26.75
2023-02-23T21:34:57.868Z,29.55
2023-02-23T21:37:24.612Z,25.40
2023-02-23T21:39:51.121Z,22.33
2023-02-23T21:42:22.990Z,26.63
2023-02-23T21:44:50.377Z,24.95
2023-02-23T21:47:16.801Z,20.23
2023-02-23T21:49:43.446Z,25.25
2023-02-23T21:52:10.361Z,26.50
2023-02-23T21:54:36.973Z,36.25
2023-02-23T21:57:04.390Z,31.48
2023-02-23T21:59:31.075Z,38.20
2023-02-23T22:01:57.572Z,37.40
2023-02-23T22:04:24.032Z,41.85
2023-02-23T22:06:50.472Z,36.30
2023-02-23T22:09:16.934Z,32.42
2023-02-23T22:11:44.447Z,33.53
2023-02-23T22:14:11.326Z,26.88
2023-02-23T22:16:39.405Z,22.83
2023-02-23T22:19:06.527Z,25.30
2023-02-23T22:21:34.501Z,22.25
2023-02-23T22:24:04.691Z,23.02
2023-02-23T22:26:38.604Z,25.33
2023-02-23T22:29:05.493Z,22.98
2023-02-23T22:31:32.361Z,19.45
2023-02-23T22:33:58.879Z,19.75
2023-02-23T22:36:25.348Z,15.82
2023-02-23T22:38:52.037Z,15.30
2023-02-23T22:41:18.841Z,16.20
2023-02-23T22:43:46.185Z,18.40
2023-02-23T22:46:13.605Z,19.65
2023-02-23T22:48:41.643Z,14.80
2023-02-23T22:51:08.317Z,14.77
2023-02-23T22:53:34.774Z,15.73
2023-02-23T22:56:01.221Z,17.25
2023-02-23T22:58:27.646Z,18.65
2023-02-23T23:01:06.601Z,16.58
2023-02-23T23:03:33.830Z,22.87
2023-02-23T23:06:03.899Z,16.92
2023-02-23T23:08:31.373Z,15.65
2023-02-23T23:11:03.544Z,20.15
2023-02-23T23:13:31.951Z,19.27
2023-02-23T23:16:07.881Z,21.33
2023-02-23T23:18:35.943Z,20.37
2023-02-23T23:21:02.711Z,19.23
2023-02-23T23:23:29.129Z,19.20
2023-02-23T23:25:55.621Z,20.05
2023-02-23T23:28:24.354Z,21.77
2023-02-23T23:30:52.132Z,20.90
2023-02-23T23:33:19.037Z,14.70
2023-02-23T23:35:45.511Z,19.73
2023-02-23T23:38:14.353Z,17.83
2023-02-23T23:40:46.770Z,17.38
2023-02-23T23:43:13.228Z,23.45
2023-02-23T23:45:40.469Z,19.00
2023-02-23T23:48:09.408Z,15.07
2023-02-23T23:50:35.821Z,14.45
2023-02-23T23:53:04.464Z,18.27
2023-02-23T23:55:31.543Z,23.48
2023-02-23T23:58:00.457Z,18.00
